createdAt,value
2023-02-18T00:01:33.071Z,14.53
2023-02-18T00:04:01.290Z,13.63
2023-02-18T00:06:33.282Z,13.75
2023-02-18T00:09:02.493Z,14.73
2023-02-18T00:11:31.578Z,12.60
2023-02-18T00:14:01.579Z,13.27
2023-02-18T00:16:29.876Z,14.50
2023-02-18T00:18:58.815Z,13.93
2023-02-18T00:21:26.169Z,13.38
2023-02-18T00:23:53.498Z,13.70
2023-02-18T00:26:21.037Z,13.27
2023-02-18T00:28:50.014Z,13.27
2023-02-18T00:31:20.158Z,13.98
2023-02-18T00:33:47.478Z,12.85
2023-02-18T00:36:18.620Z,14.45
2023-02-18T00:38:51.151Z,14.10
2023-02-18T00:41:19.450Z,14.32
2023-02-18T00:43:47.061Z,13.05
2023-02-18T00:46:14.601Z,13.70
2023-02-18T00:48:41.703Z,13.65
2023-02-18T00:51:11.548Z,13.70
2023-02-18T00:53:40.277Z,14.43
2023-02-18T00:56:08.051Z,12.68
2023-02-18T00:58:36.827Z,12.77
2023-02-18T01:01:07.705Z,13.13
2023-02-18T01:03:40.004Z,14.27
2023-02-18T01:06:08.929Z,14.77
2023-02-18T01:08:37.496Z,14.15
2023-02-18T01:11:05.998Z,11.85
2023-02-18T01:13:34.201Z,13.65
2023-02-18T01:16:01.319Z,13.57
2023-02-18T01:18:30.388Z,13.93
2023-02-18T01:20:57.985Z,13.27
2023-02-18T01:23:25.204Z,13.48
2023-02-18T01:25:52.918Z,14.07
2023-02-18T01:28:25.286Z,13.73
2023-02-18T01:30:53.981Z,12.48
2023-02-18T01:33:21.481Z,14.20
2023-02-18T01:35:48.736Z,14.65
2023-02-18T01:38:15.880Z,11.77
2023-02-18T01:40:52.364Z,12.15
2023-02-18T01:43:21.919Z,11.10
2023-02-18T01:46:15.101Z,12.38
2023-02-18T01:48:48.285Z,13.73
2023-02-18T01:51:26.051Z,13.20
2023-02-18T01:54:09.235Z,12.70
2023-02-18T01:56:38.350Z,13.00
2023-02-18T01:59:14.455Z,12.75
2023-02-18T02:01:45.194Z,12.05
2023-02-18T02:04:12.885Z,13.17
2023-02-18T02:06:41.638Z,12.30
2023-02-18T02:09:13.511Z,14.02
2023-02-18T02:12:06.996Z,10.68
2023-02-18T02:15:03.180Z,9.73
2023-02-18T02:18:12.445Z,13.50
2023-02-18T02:20:39.542Z,13.45
2023-02-18T02:23:42.547Z,13.02
2023-02-18T02:26:44.148Z,12.63
2023-02-18T02:29:53.743Z,13.18
2023-02-18T02:32:43.093Z,11.57
2023-02-18T02:35:38.603Z,12.52
2023-02-18T02:38:34.370Z,12.32
2023-02-18T02:41:17.860Z,12.05
2023-02-18T02:43:47.841Z,13.88
2023-02-18T02:46:40.521Z,11.67
2023-02-18T02:49:10.281Z,13.77
2023-02-18T02:51:58.143Z,13.95
2023-02-18T02:54:28.124Z,13.68
2023-02-18T02:57:07.495Z,11.50
2023-02-18T02:59:42.745Z,13.13
2023-02-18T03:02:36.991Z,10.40
2023-02-18T03:05:13.099Z,11.98
2023-02-18T03:08:08.971Z,12.23
2023-02-18T03:10:49.089Z,11.23
2023-02-18T03:13:53.423Z,12.80
2023-02-18T03:16:33.173Z,16.55
2023-02-18T03:19:18.981Z,16.63
2023-02-18T03:22:21.730Z,16.92
2023-02-18T03:24:52.686Z,16.23
2023-02-18T03:27:25.330Z,16.77
2023-02-18T03:30:04.759Z,15.20
2023-02-18T03:32:34.604Z,16.60
2023-02-18T03:35:08.421Z,17.27
2023-02-18T03:37:42.014Z,17.13
2023-02-18T03:40:10.823Z,18.83
2023-02-18T03:42:38.022Z,16.85
2023-02-18T03:45:07.029Z,14.80
2023-02-18T03:47:34.118Z,19.77
2023-02-18T03:50:01.080Z,21.20
2023-02-18T03:52:28.930Z,22.60
2023-02-18T03:54:55.891Z,20.85
2023-02-18T03:57:22.865Z,16.90
2023-02-18T03:59:49.892Z,14.55
2023-02-18T04:02:17.027Z,15.10
2023-02-18T04:04:44.031Z,15.43
2023-02-18T04:07:11.103Z,13.57
2023-02-18T04:09:38.157Z,14.95
2023-02-18T04:12:05.285Z,11.15
2023-02-18T04:14:32.259Z,16.23
2023-02-18T04:16:59.222Z,12.00
2023-02-18T04:19:26.184Z,16.92
2023-02-18T04:21:53.497Z,13.73
2023-02-18T04:24:20.559Z,11.07
2023-02-18T04:26:47.560Z,13.13
2023-02-18T04:29:14.572Z,16.65
2023-02-18T04:31:41.732Z,14.18
2023-02-18T04:34:08.857Z,13.18
2023-02-18T04:36:35.943Z,12.73
2023-02-18T04:39:03.395Z,17.67
2023-02-18T04:41:30.849Z,15.25
2023-02-18T04:43:59.721Z,16.80
2023-02-18T04:46:26.786Z,14.88
2023-02-18T04:48:53.791Z,17.00
2023-02-18T04:51:20.916Z,14.73
2023-02-18T04:53:47.922Z,15.90
2023-02-18T04:56:15.032Z,15.98
2023-02-18T04:58:42.036Z,14.30
2023-02-18T05:01:09.071Z,15.70
2023-02-18T05:03:36.156Z,15.37
2023-02-18T05:06:03.607Z,15.60
2023-02-18T05:08:30.764Z,14.05
2023-02-18T05:10:57.960Z,12.50
2023-02-18T05:13:25.107Z,14.50
2023-02-18T05:15:53.077Z,11.83
2023-02-18T05:18:20.143Z,12.75
2023-02-18T05:20:47.288Z,11.82
2023-02-18T05:23:14.908Z,11.80
2023-02-18T05:26:02.360Z,11.82
2023-02-18T05:28:29.599Z,12.43
2023-02-18T05:30:57.156Z,10.65
2023-02-18T05:33:24.275Z,14.77
2023-02-18T05:35:51.336Z,15.27
2023-02-18T05:38:18.913Z,15.55
2023-02-18T05:40:46.460Z,16.77
2023-02-18T05:43:13.979Z,15.23
2023-02-18T05:45:40.967Z,14.98
2023-02-18T05:48:08.016Z,16.23
2023-02-18T05:50:35.645Z,12.30
2023-02-18T05:53:02.657Z,11.27
2023-02-18T05:55:29.810Z,12.48
2023-02-18T05:57:57.089Z,13.20
2023-02-18T06:00:24.118Z,13.07
2023-02-18T06:02:51.213Z,12.32
2023-02-18T06:05:18.418Z,13.07
2023-02-18T06:07:45.514Z,12.23
2023-02-18T06:10:13.023Z,12.57
2023-02-18T06:12:40.103Z,13.25
2023-02-18T06:15:07.624Z,10.38
2023-02-18T06:17:34.686Z,10.77
2023-02-18T06:20:01.755Z,11.30
2023-02-18T06:22:31.196Z,13.50
2023-02-18T06:24:58.137Z,11.73
2023-02-18T06:27:25.139Z,10.40
2023-02-18T06:29:52.177Z,9.90
2023-02-18T06:32:19.254Z,14.23
2023-02-18T06:34:46.409Z,13.88
2023-02-18T06:37:13.491Z,11.13
2023-02-18T06:39:40.572Z,10.10
2023-02-18T06:42:07.674Z,11.53
2023-02-18T06:44:35.911Z,8.50
2023-02-18T06:47:04.638Z,11.18
2023-02-18T06:49:31.791Z,10.00
2023-02-18T06:51:58.843Z,10.55
2023-02-18T06:54:25.837Z,10.30
2023-02-18T06:56:52.868Z,11.60
2023-02-18T06:59:19.888Z,8.65
2023-02-18T07:01:46.974Z,7.95
2023-02-18T07:04:14.207Z,8.90
2023-02-18T07:06:41.263Z,12.33
2023-02-18T07:09:08.212Z,10.68
2023-02-18T07:11:35.501Z,9.02
2023-02-18T07:14:02.533Z,10.50
2023-02-18T07:16:29.640Z,10.52
2023-02-18T07:18:56.747Z,11.13
2023-02-18T07:21:23.738Z,9.73
2023-02-18T07:23:50.721Z,9.68
2023-02-18T07:26:17.872Z,10.18
2023-02-18T07:28:44.935Z,9.52
2023-02-18T07:31:12.094Z,7.63
2023-02-18T07:33:39.121Z,10.48
2023-02-18T07:36:06.889Z,9.95
2023-02-18T07:38:34.165Z,9.88
2023-02-18T07:41:01.233Z,10.75
2023-02-18T07:43:28.310Z,8.90
2023-02-18T07:45:55.534Z,7.70
2023-02-18T07:48:22.695Z,6.75
2023-02-18T07:50:49.769Z,6.82
2023-02-18T07:53:17.281Z,8.65
2023-02-18T07:55:50.156Z,7.40
2023-02-18T07:58:23.606Z,8.00
2023-02-18T08:00:51.667Z,6.75
2023-02-18T08:03:20.998Z,8.93
2023-02-18T08:05:50.213Z,8.65
2023-02-18T08:08:22.856Z,7.30
2023-02-18T08:10:51.416Z,5.90
2023-02-18T08:13:18.586Z,8.00
2023-02-18T08:15:46.032Z,5.82
2023-02-18T08:18:21.566Z,7.03
2023-02-18T08:20:50.588Z,7.30
2023-02-18T08:23:19.925Z,8.25
2023-02-18T08:29:02.049Z,5.50
2023-02-18T08:31:40.107Z,6.80
2023-02-18T08:34:25.050Z,6.03
2023-02-18T08:36:52.675Z,6.85
2023-02-18T08:39:19.849Z,7.00
2023-02-18T08:41:46.987Z,6.72
2023-02-18T08:44:14.670Z,6.80
2023-02-18T08:46:41.906Z,6.47
2023-02-18T08:49:09.042Z,5.20
2023-02-18T08:51:36.157Z,6.40
2023-02-18T08:54:03.430Z,6.45
2023-02-18T08:56:31.825Z,6.65
2023-02-18T08:58:58.881Z,7.20
2023-02-18T09:01:26.252Z,7.22
2023-02-18T09:03:53.530Z,6.85
2023-02-18T09:06:20.632Z,7.78
2023-02-18T09:08:47.758Z,7.43
2023-02-18T09:11:14.983Z,6.33
2023-02-18T09:13:42.357Z,6.63
2023-02-18T09:16:19.950Z,5.38
2023-02-18T09:18:48.252Z,5.40
2023-02-18T09:21:17.131Z,6.05
2023-02-18T09:23:44.161Z,6.53
2023-02-18T09:26:14.827Z,6.05
2023-02-18T09:28:42.130Z,6.40
2023-02-18T09:31:14.063Z,7.13
2023-02-18T09:33:45.705Z,6.82
2023-02-18T09:36:13.872Z,7.70
2023-02-18T09:38:41.003Z,6.28
2023-02-18T09:41:15.826Z,6.03
2023-02-18T09:43:47.285Z,6.63
2023-02-18T09:46:21.956Z,8.18
2023-02-18T09:48:51.269Z,7.63
2023-02-18T09:51:20.433Z,7.53
2023-02-18T09:53:47.521Z,7.05
2023-02-18T09:56:20.745Z,6.30
2023-02-18T09:58:49.405Z,7.43
2023-02-18T10:01:38.050Z,8.60
2023-02-18T10:04:15.772Z,9.05
2023-02-18T10:06:45.343Z,11.48
2023-02-18T10:09:21.524Z,10.75
2023-02-18T10:11:57.303Z,9.30
2023-02-18T10:14:26.638Z,9.50
2023-02-18T10:16:54.330Z,9.88
2023-02-18T10:19:35.505Z,8.77
2023-02-18T10:22:05.740Z,9.32
2023-02-18T10:24:37.931Z,9.68
2023-02-18T10:27:06.855Z,10.93
2023-02-18T10:29:35.476Z,6.63
2023-02-18T10:32:16.900Z,8.75
2023-02-18T10:34:49.787Z,10.15
2023-02-18T10:37:36.120Z,10.73
2023-02-18T10:40:09.355Z,9.20
2023-02-18T10:43:01.202Z,9.30
2023-02-18T10:45:38.632Z,8.18
2023-02-18T10:48:40.999Z,7.28
2023-02-18T10:51:31.962Z,9.52
2023-02-18T10:53:59.195Z,8.50
2023-02-18T10:56:38.572Z,8.45
2023-02-18T10:59:23.723Z,8.88
2023-02-18T11:01:57.777Z,9.48
2023-02-18T11:04:40.010Z,9.50
2023-02-18T11:07:14.608Z,9.00
2023-02-18T11:09:57.562Z,9.27
2023-02-18T11:12:29.093Z,8.07
2023-02-18T11:15:14.137Z,7.95
2023-02-18T11:17:47.498Z,9.05
2023-02-18T11:20:32.781Z,8.23
2023-02-18T11:23:15.296Z,7.22
2023-02-18T11:25:52.707Z,8.73
2023-02-18T11:28:19.641Z,7.43
2023-02-18T11:30:53.636Z,8.27
2023-02-18T11:33:37.743Z,7.10
2023-02-18T11:36:24.426Z,7.65
2023-02-18T11:38:56.448Z,6.70
2023-02-18T11:41:37.916Z,8.50
2023-02-18T11:44:34.725Z,6.85
2023-02-18T11:47:05.446Z,7.23
2023-02-18T11:49:35.399Z,7.30
2023-02-18T11:52:20.905Z,7.18
2023-02-18T11:55:11.130Z,7.43
2023-02-18T11:57:43.410Z,6.90
2023-02-18T12:00:24.765Z,6.90
2023-02-18T12:02:55.624Z,6.82
2023-02-18T12:05:26.583Z,6.93
2023-02-18T12:08:05.830Z,7.53
2023-02-18T12:10:41.370Z,7.05
2023-02-18T12:13:29.062Z,7.40
2023-02-18T12:16:41.183Z,7.45
2023-02-18T12:19:37.309Z,5.13
2023-02-18T12:22:13.319Z,8.02
2023-02-18T12:25:03.793Z,8.02
2023-02-18T12:27:42.839Z,5.57
2023-02-18T12:30:46.710Z,6.47
2023-02-18T12:33:28.503Z,6.07
2023-02-18T12:36:30.111Z,8.95
2023-02-18T12:39:45.959Z,6.85
2023-02-18T12:42:40.986Z,6.13
2023-02-18T12:45:20.264Z,7.10
2023-02-18T12:47:59.297Z,5.97
2023-02-18T12:51:04.383Z,6.55
2023-02-18T12:53:31.311Z,6.70
2023-02-18T12:56:07.225Z,7.23
2023-02-18T12:58:52.322Z,6.65
2023-02-18T13:01:48.258Z,6.80
2023-02-18T13:04:36.518Z,5.88
2023-02-18T13:07:36.343Z,6.28
2023-02-18T13:10:34.493Z,6.47
2023-02-18T13:13:09.133Z,5.93
2023-02-18T13:15:42.744Z,5.50
2023-02-18T13:18:16.937Z,5.60
2023-02-18T13:20:49.566Z,6.90
2023-02-18T13:23:23.853Z,6.67
2023-02-18T13:25:58.938Z,6.10
2023-02-18T13:28:37.641Z,6.65
2023-02-18T13:31:16.927Z,5.82
2023-02-18T13:33:43.905Z,6.93
2023-02-18T13:36:37.376Z,6.83
2023-02-18T13:39:10.248Z,6.47
2023-02-18T13:41:42.844Z,6.13
2023-02-18T13:44:29.877Z,7.50
2023-02-18T13:46:59.020Z,7.30
2023-02-18T13:49:35.394Z,6.90
2023-02-18T13:52:04.233Z,7.75
2023-02-18T13:54:43.966Z,6.70
2023-02-18T13:57:22.242Z,6.78
2023-02-18T13:59:58.668Z,6.50
2023-02-18T14:02:25.942Z,7.27
2023-02-18T14:04:54.004Z,6.22
2023-02-18T14:07:26.894Z,8.27
2023-02-18T14:09:56.300Z,8.70
2023-02-18T14:12:29.576Z,6.38
2023-02-18T14:14:58.880Z,7.37
2023-02-18T14:17:42.539Z,7.30
2023-02-18T14:20:10.288Z,7.75
2023-02-18T14:22:49.631Z,6.85
2023-02-18T14:25:35.715Z,7.50
2023-02-18T14:28:24.580Z,6.40
2023-02-18T14:30:52.873Z,6.55
2023-02-18T14:33:20.431Z,8.45
2023-02-18T14:36:06.183Z,8.32
2023-02-18T14:38:42.361Z,7.25
2023-02-18T14:41:33.507Z,5.53
2023-02-18T14:44:03.604Z,7.43
2023-02-18T14:47:06.424Z,7.78
2023-02-18T14:49:48.434Z,5.57
2023-02-18T14:52:30.572Z,5.97
2023-02-18T14:55:00.829Z,8.37
2023-02-18T14:57:52.907Z,6.35
2023-02-18T15:00:26.244Z,5.93
2023-02-18T15:02:55.450Z,6.07
2023-02-18T15:05:33.148Z,4.88
2023-02-18T15:08:01.469Z,5.70
2023-02-18T15:10:49.409Z,5.03
2023-02-18T15:13:32.669Z,4.85
2023-02-18T15:16:13.446Z,5.60
2023-02-18T15:18:55.016Z,6.22
2023-02-18T15:21:42.914Z,5.83
2023-02-18T15:24:39.141Z,7.40
2023-02-18T15:27:23.263Z,6.72
2023-02-18T15:29:53.566Z,6.43
2023-02-18T15:32:29.619Z,6.88
2023-02-18T15:35:02.037Z,5.40
2023-02-18T15:37:31.874Z,4.57
2023-02-18T15:39:59.125Z,5.15
2023-02-18T15:42:32.561Z,5.53
2023-02-18T15:45:24.889Z,6.20
2023-02-18T15:47:55.652Z,5.27
2023-02-18T15:50:26.875Z,5.40
2023-02-18T15:52:56.378Z,6.40
2023-02-18T15:55:32.634Z,6.05
2023-02-18T15:58:12.910Z,4.80
2023-02-18T16:00:54.287Z,5.50
2023-02-18T16:03:24.882Z,5.95
2023-02-18T16:06:11.377Z,7.50
2023-02-18T16:08:41.153Z,5.40
2023-02-18T16:11:12.691Z,6.40
2023-02-18T16:13:47.992Z,6.97
2023-02-18T16:16:23.934Z,7.07
2023-02-18T16:18:51.555Z,5.57
2023-02-18T16:21:19.133Z,6.00
2023-02-18T16:23:59.626Z,6.20
2023-02-18T16:26:43.788Z,6.83
2023-02-18T16:29:14.462Z,6.38
2023-02-18T16:31:42.610Z,7.60
2023-02-18T16:34:09.811Z,5.70
2023-02-18T16:36:37.502Z,5.95
2023-02-18T16:39:04.641Z,6.07
2023-02-18T16:41:31.743Z,6.47
2023-02-18T16:43:58.785Z,7.88
2023-02-18T16:46:25.957Z,8.20
2023-02-18T16:48:55.981Z,5.15
2023-02-18T16:51:35.091Z,5.57
2023-02-18T16:54:02.544Z,5.90
2023-02-18T16:56:35.782Z,6.80
2023-02-18T16:59:03.108Z,5.88
2023-02-18T17:01:33.710Z,6.60
2023-02-18T17:04:02.905Z,5.87
2023-02-18T17:06:30.472Z,5.68
2023-02-18T17:08:58.648Z,7.07
2023-02-18T17:11:36.126Z,5.80
2023-02-18T17:14:05.477Z,6.10
2023-02-18T17:16:33.423Z,5.53
2023-02-18T17:19:00.440Z,5.57
2023-02-18T17:21:28.594Z,5.50
2023-02-18T17:23:58.874Z,7.43
2023-02-18T17:26:28.994Z,6.80
2023-02-18T17:28:58.725Z,4.13
2023-02-18T17:31:41.978Z,6.55
2023-02-18T17:34:14.696Z,5.93
2023-02-18T17:36:45.712Z,5.97
2023-02-18T17:39:14.668Z,6.78
2023-02-18T17:41:42.473Z,5.97
2023-02-18T17:44:17.964Z,7.18
2023-02-18T17:46:46.642Z,7.28
2023-02-18T17:49:13.832Z,7.63
2023-02-18T17:51:40.942Z,8.48
2023-02-18T17:54:16.809Z,6.07
2023-02-18T17:56:44.770Z,5.93
2023-02-18T17:59:12.012Z,6.30
2023-02-18T18:01:39.163Z,7.00
2023-02-18T18:04:24.653Z,6.47
2023-02-18T18:06:54.966Z,6.17
2023-02-18T18:09:22.389Z,7.75
2023-02-18T18:11:49.547Z,6.28
2023-02-18T18:14:16.878Z,6.85
2023-02-18T18:16:44.069Z,7.85
2023-02-18T18:19:11.323Z,7.50
2023-02-18T18:21:38.829Z,7.50
2023-02-18T18:24:06.204Z,6.85
2023-02-18T18:26:33.296Z,7.05
2023-02-18T18:29:00.323Z,5.82
2023-02-18T18:31:27.498Z,6.50
2023-02-18T18:33:54.748Z,5.90
2023-02-18T18:36:24.351Z,6.25
2023-02-18T18:38:52.622Z,6.30
2023-02-18T18:41:21.798Z,6.57
2023-02-18T18:43:50.359Z,7.13
2023-02-18T18:46:17.900Z,7.18
2023-02-18T18:48:45.713Z,6.80
2023-02-18T18:51:19.053Z,7.75
2023-02-18T18:53:46.095Z,6.78
2023-02-18T18:56:13.449Z,6.93
2023-02-18T18:58:40.834Z,8.30
2023-02-18T19:01:15.518Z,8.00
2023-02-18T19:03:44.786Z,7.50
2023-02-18T19:06:13.124Z,6.97
2023-02-18T19:08:47.152Z,6.93
2023-02-18T19:11:17.118Z,6.25
2023-02-18T19:13:45.940Z,7.30
2023-02-18T19:16:26.669Z,5.20
2023-02-18T19:18:54.524Z,5.20
2023-02-18T19:21:21.600Z,6.70
2023-02-18T19:23:48.696Z,6.40
2023-02-18T19:26:20.801Z,7.75
2023-02-18T19:28:47.978Z,5.85
2023-02-18T19:31:15.877Z,7.38
2023-02-18T19:33:46.190Z,5.77
2023-02-18T19:36:14.984Z,7.18
2023-02-18T19:38:42.192Z,7.75
2023-02-18T19:41:12.563Z,6.45
2023-02-18T19:43:40.953Z,5.93
2023-02-18T19:46:13.603Z,5.60
2023-02-18T19:48:41.610Z,7.32
2023-02-18T19:51:09.368Z,7.93
2023-02-18T19:53:36.978Z,7.75
2023-02-18T19:56:07.542Z,7.22
2023-02-18T19:58:36.008Z,7.00
2023-02-18T20:01:03.651Z,7.43
2023-02-18T20:03:30.952Z,8.05
2023-02-18T20:05:58.000Z,6.03
2023-02-18T20:08:25.107Z,6.55
2023-02-18T20:10:59.247Z,6.00
2023-02-18T20:13:26.793Z,6.35
2023-02-18T20:15:53.898Z,8.05
2023-02-18T20:18:21.099Z,7.15
2023-02-18T20:20:49.319Z,6.03
2023-02-18T20:23:16.496Z,6.90
2023-02-18T20:25:43.734Z,7.30
2023-02-18T20:28:10.873Z,7.28
2023-02-18T20:30:38.079Z,7.03
2023-02-18T20:33:05.924Z,5.63
2023-02-18T20:35:33.117Z,5.50
2023-02-18T20:38:00.460Z,6.32
2023-02-18T20:40:27.777Z,6.65
2023-02-18T20:42:54.933Z,6.68
2023-02-18T20:45:21.938Z,7.15
2023-02-18T20:47:49.229Z,7.17
2023-02-18T20:50:16.454Z,6.88
2023-02-18T20:52:43.621Z,7.25
2023-02-18T20:55:10.722Z,6.03
2023-02-18T20:57:37.746Z,8.27
2023-02-18T21:00:05.541Z,9.03
2023-02-18T21:02:33.083Z,8.18
2023-02-18T21:05:00.054Z,8.80
2023-02-18T21:07:27.087Z,6.75
2023-02-18T21:09:54.164Z,5.88
2023-02-18T21:12:21.268Z,7.10
2023-02-18T21:14:50.186Z,7.35
2023-02-18T21:17:17.238Z,7.53
2023-02-18T21:19:44.303Z,8.70
2023-02-18T21:22:11.326Z,8.60
2023-02-18T21:24:38.374Z,8.57
2023-02-18T21:27:05.515Z,6.72
2023-02-18T21:29:32.587Z,8.02
2023-02-18T21:32:01.131Z,7.53
2023-02-18T21:34:28.204Z,8.02
2023-02-18T21:36:55.364Z,8.40
2023-02-18T21:39:22.566Z,7.75
2023-02-18T21:41:49.706Z,6.47
2023-02-18T21:44:16.772Z,8.40
2023-02-18T21:46:43.865Z,6.93
2023-02-18T21:49:12.635Z,7.97
2023-02-18T21:51:58.052Z,7.72
2023-02-18T21:54:39.988Z,6.90
2023-02-18T21:57:11.438Z,8.00
2023-02-18T21:59:39.222Z,8.77
2023-02-18T22:02:08.180Z,7.83
2023-02-18T22:04:37.254Z,8.73
2023-02-18T22:07:04.644Z,8.45
2023-02-18T22:09:34.538Z,8.50
2023-02-18T22:12:01.940Z,7.68
2023-02-18T22:14:29.310Z,8.27
2023-02-18T22:16:56.802Z,6.72
2023-02-18T22:19:23.939Z,8.23
2023-02-18T22:21:50.994Z,7.13
2023-02-18T22:24:19.149Z,8.60
2023-02-18T22:26:46.905Z,8.27
2023-02-18T22:29:16.227Z,8.57
2023-02-18T22:31:43.322Z,8.50
2023-02-18T22:34:11.326Z,7.93
2023-02-18T22:36:38.582Z,6.30
2023-02-18T22:39:06.791Z,8.20
2023-02-18T22:41:34.631Z,9.52
2023-02-18T22:44:04.104Z,7.38
2023-02-18T22:46:33.176Z,9.60
2023-02-18T22:49:02.521Z,8.25
2023-02-18T22:51:37.812Z,7.97
2023-02-18T22:54:07.790Z,7.35
2023-02-18T22:56:34.933Z,8.80
2023-02-18T22:59:02.451Z,9.93
2023-02-18T23:01:32.867Z,9.55
2023-02-18T23:04:06.004Z,9.60
2023-02-18T23:06:33.462Z,7.53
2023-02-18T23:09:00.497Z,8.70
2023-02-18T23:11:27.908Z,6.07
2023-02-18T23:14:14.239Z,8.27
2023-02-18T23:17:00.298Z,8.67
2023-02-18T23:19:29.116Z,7.15
2023-02-18T23:21:56.349Z,8.15
2023-02-18T23:24:24.065Z,7.97
2023-02-18T23:26:51.576Z,7.15
2023-02-18T23:29:18.926Z,8.83
2023-02-18T23:31:46.071Z,7.88
2023-02-18T23:34:15.243Z,7.22
2023-02-18T23:36:43.141Z,6.93
2023-02-18T23:39:13.691Z,8.00
2023-02-18T23:41:40.817Z,7.97
2023-02-18T23:44:11.053Z,8.60
2023-02-18T23:46:38.176Z,9.38
2023-02-18T23:49:05.567Z,8.55
2023-02-18T23:51:33.084Z,7.82
2023-02-18T23:54:02.691Z,6.57
2023-02-18T23:56:29.766Z,9.35
2023-02-18T23:59:00.682Z,8.68
